Darbhanga Airport

Jump to: basic info | weather | runways | comments

Related pages: nearby airports | nearby navaids | notams | map

Basic information (top)

Codes: VE89
Location: lon 26.192801, lat 85.916901, elev 156 ft / 48 m msl
Status: small_airport

Weather (top)

Current conditions for Lok Nayak Jayaprakash Airport 58nm (107km) SW (rec'd 2014/07/23 14:50Z):

VEPT 231450Z 20014KT 4000 HZ FEW020 BKN100 30/25 Q1000 NOSIG

Airport forecast for Lok Nayak Jayaprakash Airport 58nm (107km) SW (rec'd 2014/07/23 12:00Z):

TAF VEPT 230900Z 2312/2418 07008KT 5000 HZ/-TSRA SCT020 FEW030CB SCT090 
      BECMG 2316/2318 09003KT 4000 HZ/-RA 
      BECMG 2322/2324 3000 HZ/-RA 
      BECMG 2403/2405 09006KT 3500 HZ/-RA 
      BECMG 2409/2411 5000 HZ/-RA 
      BECMG 2416/2418 4000 HZ/-TSRA

Runways (top)

10/28: 9,000 x 150 ft (2,743 x 46 m) — paved — not lighted

Latest comments (top)

airline service: Please please start airline services ... [read]

pls: pls do start darbhanga airport [read]

flights to darbhanga: it will be honour to open darbhanga ... [read]

Darbhanga Airport: We would request Bihar and Central ... [read]

Airport darbhanga: I am Chandeshwar Mandal and I request ... [read]

See all 19 comments for Darbhanga Airport

More... (top)

See also NOTAMs and nearby airports and navaids, or visit the Darbhanga Airport page at the main OurAirports website..